Time;durP1;ratioP1;P1;durP2;ratioP2;P2;SDS_P1;SDS_P2;PMS_P1;PMS_P2;Temp;Humidity;BMP_temperature;BMP_pressure;BME280_temperature;BME280_humidity;BME280_pressure;Samples;Min_cycle;Max_cycle;Signal;HPM_P1;HPM_P2
2022/09/13 00:01:32;;;;;;;29.48;23.25;;;;;;;;;;6268415;22;20050;-86
2022/09/13 00:03:58;;;;;;;33.33;24.33;;;;;;;;;;6244174;22;20015;-88
2022/09/13 00:06:24;;;;;;;28.38;22.60;;;;;;;;;;6268379;22;20098;-87
2022/09/13 00:08:52;;;;;;;34.10;24.83;;;;;;;;;;6297106;22;20387;-88
2022/09/13 00:11:20;;;;;;;32.53;24.63;;;;;;;;;;6269960;22;20019;-87
2022/09/13 00:13:53;;;;;;;31.20;24.13;;;;;;;;;;6269108;22;20148;-86
2022/09/13 00:16:19;;;;;;;31.90;24.38;;;;;;;;;;6268727;22;20304;-87
2022/09/13 00:18:46;;;;;;;34.75;26.25;;;;;;;;;;6244149;22;20049;-86
2022/09/13 00:21:22;;;;;;;30.45;23.38;;;;;;;;;;6268148;22;20011;-85
2022/09/13 00:23:50;;;;;;;40.92;26.58;;;;;;;;;;6265887;22;20066;-86
2022/09/13 00:26:18;;;;;;;39.63;26.90;;;;;;;;;;6295621;22;20038;-87
2022/09/13 00:28:44;;;;;;;37.00;27.05;;;;;;;;;;6268736;22;20011;-85
2022/09/13 00:31:10;;;;;;;35.50;24.40;;;;;;;;;;6299285;22;20097;-87
2022/09/13 00:33:37;;;;;;;36.67;25.95;;;;;;;;;;6296028;22;20095;-86
2022/09/13 00:36:07;;;;;;;37.75;27.70;;;;;;;;;;6246396;22;20080;-88
2022/09/13 00:38:37;;;;;;;37.65;25.75;;;;;;;;;;6294897;22;20485;-87
2022/09/13 00:41:04;;;;;;;36.08;25.35;;;;;;;;;;6272185;22;20023;-88
2022/09/13 00:43:41;;;;;;;32.22;22.00;;;;;;;;;;6295789;22;20022;-87
2022/09/13 00:46:08;;;;;;;39.55;25.38;;;;;;;;;;6297103;22;20023;-87
2022/09/13 00:48:34;;;;;;;38.55;25.88;;;;;;;;;;6273265;22;20026;-87
2022/09/13 00:51:05;;;;;;;31.52;22.48;;;;;;;;;;6247766;22;20027;-87
2022/09/13 00:53:46;;;;;;;31.17;20.65;;;;;;;;;;6302985;22;20062;-86
2022/09/13 00:56:17;;;;;;;29.80;20.65;;;;;;;;;;6297770;22;20660;-90
2022/09/13 00:58:46;;;;;;;24.88;18.08;;;;;;;;;;6304026;22;20106;-88
2022/09/13 01:01:14;;;;;;;23.63;16.33;;;;;;;;;;6301919;22;20011;-88
2022/09/13 01:03:42;;;;;;;23.17;16.48;;;;;;;;;;6299388;22;20017;-84
2022/09/13 01:06:20;;;;;;;22.05;15.63;;;;;;;;;;6296127;22;20210;-88
2022/09/13 01:09:05;;;;;;;24.35;16.92;;;;;;;;;;6235208;23;20042;-89
2022/09/13 01:11:40;;;;;;;21.70;16.90;;;;;;;;;;6186233;23;20449;-86
2022/09/13 01:14:19;;;;;;;20.45;15.70;;;;;;;;;;6207128;23;20094;-87
2022/09/13 01:16:52;;;;;;;22.35;16.15;;;;;;;;;;6243344;22;20090;-88
2022/09/13 01:19:18;;;;;;;24.27;15.60;;;;;;;;;;6236783;22;20552;-87
2022/09/13 01:25:39;;;;;;;19.70;15.95;;;17.50;99.90;;;;;;6235874;22;20407;-86
2022/09/13 01:28:08;;;;;;;19.35;15.45;;;;;;;;;;6236512;22;20122;-87
2022/09/13 01:30:37;;;;;;;23.10;16.83;;;;;;;;;;6239417;22;20435;-88
2022/09/13 01:33:23;;;;;;;22.55;17.25;;;;;;;;;;6238246;22;20907;-89
2022/09/13 01:35:55;;;;;;;27.65;19.35;;;;;;;;;;6213475;22;20102;-86
2022/09/13 01:38:43;;;;;;;27.85;19.88;;;;;;;;;;6260030;22;20078;-85
2022/09/13 01:41:16;;;;;;;36.55;23.23;;;;;;;;;;6297977;22;20497;-87
2022/09/13 01:43:52;;;;;;;32.05;22.40;;;;;;;;;;6296526;22;20350;-87
2022/09/13 01:46:30;;;;;;;35.10;24.13;;;;;;;;;;6295526;22;20047;-88
2022/09/13 01:48:59;;;;;;;36.90;25.25;;;;;;;;;;6299748;22;20051;-87
2022/09/13 01:51:42;;;;;;;37.40;24.52;;;;;;;;;;6297003;22;20019;-88
2022/09/13 01:54:27;;;;;;;46.17;27.37;;;;;;;;;;6298200;22;20346;-86
2022/09/13 01:57:21;;;;;;;35.60;25.25;;;;;;;;;;6297250;22;20019;-86
2022/09/13 01:59:56;;;;;;;40.78;26.42;;;;;;;;;;6296535;22;20491;-89
2022/09/13 02:02:22;;;;;;;40.78;27.40;;;;;;;;;;6296635;22;20390;-88
2022/09/13 02:04:54;;;;;;;42.42;28.15;;;;;;;;;;6295383;22;20675;-86
2022/09/13 02:07:40;;;;;;;42.53;27.60;;;;;;;;;;6294948;22;20050;-88
2022/09/13 02:13:50;;;;;;;39.45;26.40;;;;;;;;;;6297001;22;20470;-87
2022/09/13 02:16:20;;;;;;;42.00;27.77;;;;;;;;;;6295175;22;20026;-86
2022/09/13 02:18:49;;;;;;;38.45;27.17;;;;;;;;;;6294008;22;20058;-86
2022/09/13 02:21:21;;;;;;;41.92;26.88;;;;;;;;;;6295006;22;20023;-86
2022/09/13 02:23:59;;;;;;;39.08;24.27;;;;;;;;;;6293190;22;20050;-86
2022/09/13 02:26:32;;;;;;;34.97;24.88;;;;;;;;;;6297777;22;20030;-87
2022/09/13 02:29:08;;;;;;;36.97;26.90;;;;;;;;;;6294918;22;20106;-88
2022/09/13 02:31:38;;;;;;;35.92;25.52;;;;;;;;;;6286625;22;20019;-88
2022/09/13 02:34:20;;;;;;;41.42;28.20;;;;;;;;;;6294668;22;20667;-89
2022/09/13 02:36:48;;;;;;;44.03;28.85;;;;;;;;;;6295717;22;20030;-87
2022/09/13 02:39:15;;;;;;;45.72;29.67;;;;;;;;;;6294735;22;20023;-87
2022/09/13 02:41:56;;;;;;;44.13;28.27;;;;;;;;;;6294832;22;20069;-86
2022/09/13 02:44:25;;;;;;;44.22;28.58;;;;;;;;;;6294927;22;20098;-87
2022/09/13 02:47:15;;;;;;;46.50;28.70;;;;;;;;;;6294592;22;20046;-89
2022/09/13 02:49:56;;;;;;;46.88;29.08;;;;;;;;;;6225556;22;20011;-87
2022/09/13 02:52:40;;;;;;;30.20;20.85;;;;;;;;;;6295138;22;20030;-89
2022/09/13 02:55:18;;;;;;;27.20;17.95;;;;;;;;;;6296203;22;20015;-85
2022/09/13 02:57:48;;;;;;;24.58;17.52;;;;;;;;;;6295210;22;20111;-88
2022/09/13 03:00:21;;;;;;;18.38;13.00;;;;;;;;;;6293061;22;20569;-84
2022/09/13 03:02:48;;;;;;;12.98;10.35;;;;;;;;;;6297805;22;20026;-87
2022/09/13 03:05:14;;;;;;;19.70;11.18;;;;;;;;;;6294559;22;20336;-85
2022/09/13 03:07:59;;;;;;;13.73;9.43;;;;;;;;;;6295195;22;20057;-85
2022/09/13 03:10:30;;;;;;;14.45;9.18;;;;;;;;;;6237425;22;20460;-87
2022/09/13 03:13:15;;;;;;;12.93;8.02;;;;;;;;;;6266977;22;20069;-88
2022/09/13 03:15:47;;;;;;;7.60;6.20;;;;;;;;;;6239503;22;20019;-89
2022/09/13 03:18:41;;;;;;;10.38;6.13;;;;;;;;;;6269460;22;20019;-89
2022/09/13 03:21:07;;;;;;;;;;;;;;;;;;6265409;22;20027;-87
2022/09/13 03:27:23;;;;;;;15.13;9.10;;;;;;;;;;6240557;22;20019;-88
2022/09/13 03:30:14;;;;;;;16.08;9.60;;;;;;;;;;6169473;23;20063;-88
2022/09/13 03:32:59;;;;;;;12.47;9.30;;;;;;;;;;6181089;23;20024;-88
2022/09/13 03:35:47;;;;;;;13.10;9.18;;;;;;;;;;6178019;23;20056;-87
2022/09/13 03:38:24;;;;;;;11.23;8.82;;;;;;;;;;6201739;23;20485;-86
2022/09/13 03:41:03;;;;;;;12.20;8.65;;;;;;;;;;6204057;23;20022;-87
2022/09/13 03:43:37;;;;;;;15.80;8.93;;;;;;;;;;6176029;23;20450;-87
2022/09/13 03:46:18;;;;;;;12.35;8.02;;;;;;;;;;6205330;23;20027;-87
2022/09/13 03:48:45;;;;;;;13.60;7.68;;;;;;;;;;6203626;23;20060;-87
2022/09/13 03:51:11;;;;;;;17.70;8.77;;;;;;;;;;6211673;23;20013;-86
2022/09/13 03:53:42;;;;;;;11.63;7.80;;;;;;;;;;6218791;22;20348;-86
2022/09/13 03:56:12;;;;;;;11.20;7.90;;;;;;;;;;6219356;22;20593;-86
2022/09/13 03:58:43;;;;;;;13.05;8.13;;;;;;;;;;6247406;22;20030;-84
2022/09/13 04:01:12;;;;;;;11.60;8.15;;;;;;;;;;6300840;22;20038;-86
2022/09/13 04:03:39;;;;;;;12.77;6.90;;;;;;;;;;6273022;22;20027;-84
2022/09/13 04:06:05;;;;;;;13.38;6.18;;;;;;;;;;6245202;22;20026;-85
2022/09/13 04:08:32;;;;;;;8.80;5.80;;;;;;;;;;6245242;22;20015;-87
2022/09/13 04:10:59;;;;;;;9.32;5.68;;;;;;;;;;6244988;22;20080;-87
2022/09/13 04:13:28;;;;;;;13.77;5.97;;;;;;;;;;6270987;22;20021;-86
2022/09/13 04:15:54;;;;;;;8.63;5.65;;;;;;;;;;6270832;22;20015;-87
2022/09/13 04:18:20;;;;;;;9.07;5.72;;;;;;;;;;6245582;22;20015;-89
2022/09/13 04:20:54;;;;;;;7.30;5.38;;;;;;;;;;6297992;22;20019;-86
2022/09/13 04:23:20;;;;;;;9.15;5.90;;;;;;;;;;6269365;22;20051;-87
2022/09/13 04:25:46;;;;;;;8.48;5.50;;;;;;;;;;6246233;22;20012;-86
2022/09/13 04:28:12;;;;;;;12.05;5.55;;;;;;;;;;6244272;22;20019;-88
2022/09/13 04:30:38;;;;;;;10.18;5.10;;;;;;;;;;6299398;22;20023;-88
2022/09/13 04:33:04;;;;;;;9.65;5.25;;;;;;;;;;6244232;22;20068;-89
2022/09/13 04:35:30;;;;;;;9.40;4.80;;;;;;;;;;6247678;22;20050;-85
2022/09/13 04:37:59;;;;;;;12.15;4.68;;;;;;;;;;6246082;22;20027;-85
2022/09/13 04:40:26;;;;;;;10.85;4.10;;;;;;;;;;6244615;22;20034;-87
2022/09/13 04:42:52;;;;;;;9.38;4.38;;;;;;;;;;6247699;22;20026;-84
2022/09/13 04:45:18;;;;;;;12.98;4.20;;;;;;;;;;6245223;22;20062;-84
2022/09/13 04:47:44;;;;;;;9.48;3.83;;;;;;;;;;6298956;22;20015;-85
2022/09/13 04:50:10;;;;;;;8.55;3.35;;;;;;;;;;6269221;22;20607;-86
2022/09/13 04:53:12;;;;;;;10.38;3.30;;;;;;;;;;6273591;22;20102;-86
2022/09/13 04:55:39;;;;;;;6.50;2.83;;;;;;;;;;6269955;22;20525;-87
2022/09/13 04:58:05;;;;;;;7.38;3.00;;;;;;;;;;6221294;22;20030;-88
2022/09/13 05:00:31;;;;;;;5.50;2.92;;;;;;;;;;6219803;22;20020;-86
2022/09/13 05:02:57;;;;;;;12.45;3.15;;;;;;;;;;6277109;22;20023;-86
2022/09/13 05:05:24;;;;;;;17.40;3.42;;;;;;;;;;6272008;22;20329;-86
2022/09/13 05:07:51;;;;;;;6.85;3.05;;;;;;;;;;6299377;22;20018;-87
2022/09/13 05:10:26;;;;;;;9.93;3.28;;;;;;;;;;6299763;22;20030;-87
2022/09/13 05:12:53;;;;;;;11.88;2.70;;;;;;;;;;6299072;22;20015;-90
2022/09/13 05:18:36;;;;;;;8.70;1.92;;;;;;;;;;6304256;22;20023;-88
2022/09/13 05:21:03;;;;;;;12.27;2.10;;;;;;;;;;6311446;22;20344;-86
2022/09/13 05:23:38;;;;;;;10.93;2.05;;;;;;;;;;6266338;22;20023;-88
2022/09/13 05:26:05;;;;;;;11.23;2.65;;;;;;;;;;6297741;22;20090;-88
2022/09/13 05:28:33;;;;;;;11.65;1.95;;;;;;;;;;6268306;22;20015;-86
2022/09/13 05:31:19;;;;;;;13.10;2.35;;;;;;;;;;6324440;22;20046;-84
2022/09/13 05:33:57;;;;;;;12.65;2.40;;;;;;;;;;6322431;22;20025;-88
2022/09/13 05:36:54;;;;;;;13.63;2.22;;;;;;;;;;6318602;22;20031;-86
2022/09/13 05:41:46;;;;;;;12.07;2.78;;;;;;;;;;6309202;22;20070;-85
2022/09/13 05:44:31;;;;;;;9.30;2.20;;;;;;;;;;6300809;22;20337;-87
2022/09/13 05:49:34;;;;;;;15.07;1.85;;;;;;;;;;6272820;22;20028;-89
2022/09/13 05:52:00;;;;;;;15.10;2.20;;;;;;;;;;6270994;22;20035;-86
2022/09/13 05:54:26;;;;;;;7.90;1.98;;;;;;;;;;6277288;22;20131;-88
2022/09/13 05:56:56;;;;;;;13.88;2.70;;;;;;;;;;6227000;22;20015;-87
2022/09/13 06:03:27;;;;;;;10.73;1.83;;;;;;;;;;6275819;22;20032;-88
2022/09/13 06:08:55;;;;;;;14.93;2.15;;;;;;;;;;6305986;22;20096;-90
2022/09/13 06:11:40;;;;;;;8.93;1.70;;;;;;;;;;6302248;22;20022;-88
2022/09/13 06:14:06;;;;;;;13.80;2.15;;;;;;;;;;6276499;22;20019;-88
2022/09/13 06:19:55;;;;;;;13.07;1.80;;;;;;;;;;6303251;22;20045;-86
2022/09/13 06:22:34;;;;;;;5.57;1.65;;;;;;;;;;6301928;22;20058;-89
2022/09/13 06:25:05;;;;;;;8.70;1.65;;;;;;;;;;6301805;22;20031;-89
2022/09/13 06:27:34;;;;;;;6.88;1.77;;;;;;;;;;6279128;22;20058;-86
2022/09/13 06:30:00;;;;;;;10.60;1.85;;;;;;;;;;6305344;22;20043;-89
2022/09/13 06:32:26;;;;;;;7.50;2.08;;;;;;;;;;6306256;22;20011;-88
2022/09/13 06:38:27;;;;;;;6.18;1.60;;;;;;;;;;6305736;22;20030;-87
2022/09/13 06:44:37;;;;;;;15.68;1.83;;;;;;;;;;6309735;22;20080;-85
2022/09/13 07:01:09;;;;;;;4.95;1.50;;;;;;;;;;6278353;22;20020;-86
2022/09/13 07:06:59;;;;;;;6.93;1.15;;;;;;;;;;6307671;22;20336;-87
2022/09/13 07:09:51;;;;;;;8.15;1.30;;;;;;;;;;6280132;22;20023;-88
2022/09/13 07:13:01;;;;;;;10.10;1.08;;;;;;;;;;6280852;22;20355;-87
2022/09/13 07:16:02;;;;;;;8.60;1.67;;;;;;;;;;6251559;22;20075;-89
2022/09/13 07:21:42;;;;;;;5.93;1.02;;;;;;;;;;6279726;22;20421;-83
2022/09/13 07:24:09;;;;;;;10.32;1.85;;;;;;;;;;6308880;22;20018;-85
2022/09/13 07:26:35;;;;;;;16.02;2.10;;;;;;;;;;6305684;22;20023;-84
2022/09/13 07:29:03;;;;;;;7.88;1.27;;;;;;;;;;6304362;22;20031;-82
2022/09/13 07:31:37;;;;;;;17.95;2.15;;;;;;;;;;6278133;22;20026;-83
2022/09/13 07:37:26;;;;;;;13.55;2.42;;;;;;;;;;6305312;22;20038;-84
2022/09/13 07:39:52;;;;;;;10.00;1.60;;;;;;;;;;6308814;22;20082;-84
2022/09/13 07:42:18;;;;;;;10.93;1.55;;;;;;;;;;6280256;22;20011;-85
2022/09/13 07:51:39;;;;;;;9.77;1.52;;;;;;;;;;6273133;22;20081;-84
2022/09/13 07:54:07;;;;;;;7.50;1.23;;;;;;;;;;6306447;22;20097;-83
2022/09/13 07:56:39;;;;;;;4.32;1.05;;;;;;;;;;6293077;22;20015;-82
2022/09/13 07:59:15;;;;;;;8.70;1.25;;;;;;;;;;6307048;22;20022;-83
2022/09/13 08:01:46;;;;;;;9.82;1.50;;;;;;;;;;6306619;22;20046;-83
2022/09/13 08:04:13;;;;;;;8.05;1.48;;;;;;;;;;6279277;22;20024;-83
2022/09/13 08:06:54;;;;;;;7.03;1.10;;;;;;;;;;6303958;22;20335;-81
2022/09/13 08:09:20;;;;;;;7.93;1.80;;;;;;;;;;6304579;22;20046;-82
2022/09/13 08:12:05;;;;;;;8.40;1.50;;;;;;;;;;6279807;22;20050;-83
2022/09/13 08:14:31;;;;;;;10.63;1.05;;;;;;;;;;6306346;22;20403;-82
2022/09/13 08:16:57;;;;;;;7.90;1.40;;;;;;;;;;6306853;22;20034;-83
2022/09/13 08:19:24;;;;;;;9.48;1.08;;;;;;;;;;6307893;22;20054;-82
2022/09/13 08:21:52;;;;;;;11.27;1.60;;;;;;;;;;6306558;22;20026;-83
2022/09/13 08:24:22;;;;;;;6.10;1.30;;;;;;;;;;6305116;22;20015;-91
2022/09/13 08:27:42;;;;;;;6.28;1.08;;;18.90;99.90;;;;;;6279088;22;20026;-90
2022/09/13 08:36:15;;;;;;;5.78;0.85;;;;;;;;;;6313314;22;20442;-90
2022/09/13 08:42:35;;;;;;;7.80;0.85;;;;;;;;;;6310513;22;20040;-89
2022/09/13 08:45:01;;;;;;;5.88;1.30;;;;;;;;;;6261567;22;20411;-90
2022/09/13 08:47:50;;;;;;;16.63;2.53;;;;;;;;;;6261425;22;20100;-90
2022/09/13 08:50:57;;;;;;;10.35;1.85;;;19.30;99.90;;;;;;6262788;22;20042;-90
2022/09/13 09:00:24;;;;;;;10.73;1.00;;;;;;;;;;6315125;22;20007;-91
2022/09/13 09:09:50;;;;;;;11.18;1.48;;;;;;;;;;6316317;22;20022;-90
2022/09/13 09:39:37;;;;;;;8.82;1.17;;;;;;;;;;6273456;22;20028;-82
2022/09/13 09:42:04;;;;;;;9.10;1.30;;;;;;;;;;6275857;22;20016;-82
2022/09/13 09:44:47;;;;;;;8.23;1.95;;;;;;;;;;6246344;22;20023;-84
2022/09/13 09:47:16;;;;;;;6.13;1.52;;;;;;;;;;6183105;23;20017;-84
2022/09/13 09:52:52;;;;;;;8.30;1.63;;;;;;;;;;6183213;23;20053;-83
2022/09/13 09:55:19;;;;;;;9.90;2.22;;;;;;;;;;6181712;23;20575;-83
2022/09/13 09:58:04;;;;;;;10.30;1.63;;;;;;;;;;6184346;23;20063;-83
2022/09/13 10:00:34;;;;;;;11.35;1.60;;;;;;;;;;6184833;23;20028;-85
2022/09/13 10:06:24;;;;;;;3.95;1.10;;;;;;;;;;6184502;23;20060;-85
2022/09/13 10:08:55;;;;;;;5.97;1.52;;;;;;;;;;6163380;23;20032;-83
2022/09/13 10:11:39;;;;;;;13.32;1.88;;;;;;;;;;6166884;23;20020;-86
2022/09/13 10:14:24;;;;;;;8.90;1.10;;;;;;;;;;6251285;22;20015;-89
2022/09/13 10:17:04;;;;;;;9.32;1.27;;;;;;;;;;6259157;22;20019;-85
2022/09/13 10:19:31;;;;;;;5.85;0.90;;;;;;;;;;6284910;22;20090;-87
2022/09/13 10:22:01;;;;;;;6.65;1.00;;;;;;;;;;6310097;22;20019;-85
2022/09/13 10:24:43;;;;;;;9.60;1.73;;;;;;;;;;6259522;22;20057;-82
2022/09/13 10:30:57;;;;;;;10.82;1.25;;;;;;;;;;6313168;22;20087;-81
2022/09/13 10:33:41;;;;;;;6.78;1.20;;;;;;;;;;6257228;22;20019;-83
2022/09/13 10:38:49;;;;;;;5.90;1.05;;;;;;;;;;6300679;22;20030;-84
2022/09/13 10:41:23;;;;;;;11.63;1.45;;;;;;;;;;6278061;22;20027;-84
2022/09/13 10:44:04;;;;;;;5.90;1.33;;;;;;;;;;6280145;22;20023;-85
2022/09/13 10:46:57;;;;;;;11.05;2.38;;;;;;;;;;6292391;22;20023;-86
2022/09/13 10:49:49;;;;;;;6.70;0.88;;;;;;;;;;6247942;22;20103;-86
2022/09/13 10:53:21;;;;;;;5.82;1.10;;;21.40;99.90;;;;;;6275856;22;20027;-83
2022/09/13 10:55:53;;;;;;;6.78;1.35;;;;;;;;;;6273897;22;20025;-84
2022/09/13 10:58:48;;;;;;;9.10;1.92;;;;;;;;;;6250902;22;20031;-82
2022/09/13 11:04:50;;;;;;;6.53;1.25;;;;;;;;;;6278726;22;20622;-84
2022/09/13 11:07:32;;;;;;;9.82;1.15;;;;;;;;;;6247857;22;20023;-85
2022/09/13 11:13:26;;;;;;;10.95;1.35;;;;;;;;;;6147108;23;20061;-83
2022/09/13 11:16:17;;;;;;;8.65;1.40;;;;;;;;;;6272332;22;20098;-82
2022/09/13 11:18:52;;;;;;;6.45;1.00;;;;;;;;;;6269339;22;20099;-85
2022/09/13 11:21:24;;;;;;;3.75;1.10;;;;;;;;;;6246783;22;20020;-84
2022/09/13 11:27:20;;;;;;;;;;;;;;;;;;;;;
2022/09/13 11:30:09;;;;;;;13.35;1.60;;;;;;;;;;6273559;22;20015;-83
2022/09/13 11:32:36;;;;;;;17.48;1.50;;;;;;;;;;6302919;22;20090;-84
2022/09/13 11:35:17;;;;;;;8.48;1.70;;;;;;;;;;6249486;22;20046;-82
2022/09/13 11:37:52;;;;;;;9.75;1.50;;;;;;;;;;6303749;22;20497;-84
2022/09/13 11:40:27;;;;;;;13.63;1.95;;;;;;;;;;6306663;22;20033;-84
2022/09/13 11:43:41;;;;;;;14.63;1.70;;;;;;;;;;6248806;22;20542;-85
2022/09/13 11:46:21;;;;;;;12.20;1.58;;;;;;;;;;6282182;22;20095;-87
2022/09/13 11:49:24;;;;;;;11.23;1.40;;;;;;;;;;6309011;22;20132;-82
2022/09/13 11:51:50;;;;;;;9.05;1.33;;;;;;;;;;6126807;23;20064;-82
2022/09/13 11:54:22;;;;;;;10.23;1.63;;;;;;;;;;6274958;22;20045;-84
2022/09/13 11:57:10;;;;;;;8.10;1.73;;;;;;;;;;6276000;22;20018;-82
2022/09/13 11:59:52;;;;;;;10.05;1.73;;;;;;;;;;6304598;22;20434;-84
2022/09/13 12:05:34;;;;;;;11.55;1.50;;;;;;;;;;6268351;22;20038;-82
2022/09/13 12:11:20;;;;;;;9.38;1.88;;;;;;;;;;6303606;22;20016;-82
2022/09/13 12:13:57;;;;;;;8.73;1.30;;;;;;;;;;6250522;22;20403;-84
2022/09/13 12:16:32;;;;;;;8.95;1.50;;;;;;;;;;6248901;22;20518;-83
2022/09/13 12:19:28;;;;;;;8.82;2.00;;;;;;;;;;6302556;22;20031;-83
2022/09/13 12:21:56;;;;;;;12.98;3.35;;;;;;;;;;6148947;23;20578;-84
2022/09/13 12:24:34;;;;;;;9.15;1.67;;;;;;;;;;6103090;23;20032;-83
2022/09/13 12:27:04;;;;;;;8.38;1.85;;;;;;;;;;6176839;23;20021;-82
2022/09/13 12:29:44;;;;;;;5.50;1.20;;;;;;;;;;6184251;23;20017;-85
2022/09/13 12:32:28;;;;;;;8.45;1.55;;;;;;;;;;6208970;22;20027;-86
2022/09/13 12:38:35;;;;;;;5.95;1.50;;;;;;;;;;6280484;22;20034;-83
2022/09/13 12:41:04;;;;;;;8.18;1.30;;;;;;;;;;6147533;22;20079;-86
2022/09/13 12:43:33;;;;;;;7.97;1.40;;;;;;;;;;6327498;22;20102;-85
2022/09/13 12:46:18;;;;;;;4.78;1.02;;;;;;;;;;6336743;22;20029;-83
2022/09/13 12:49:04;;;;;;;11.55;1.90;;;;;;;;;;6286598;22;20032;-84
2022/09/13 12:52:05;;;;;;;7.88;1.20;;;;;;;;;;6311165;22;20025;-84
2022/09/13 12:55:14;;;;;;;8.25;1.60;;;22.30;99.90;;;;;;6285805;22;20022;-83
2022/09/13 13:03:42;;;;;;;5.43;1.35;;;;;;;;;;6313896;22;20050;-87
2022/09/13 13:06:27;;;;;;;8.95;1.50;;;;;;;;;;6315929;22;20046;-85
2022/09/13 13:08:57;;;;;;;10.45;1.90;;;;;;;;;;6273431;22;20011;-82
2022/09/13 13:17:46;;;;;;;7.40;1.35;;;;;;;;;;6307026;22;20027;-83
2022/09/13 13:23:39;;;;;;;6.85;1.15;;;;;;;;;;6303896;22;20097;-82
2022/09/13 13:26:27;;;;;;;7.93;1.55;;;;;;;;;;6252247;22;20024;-82
2022/09/13 13:29:22;;;;;;;8.77;1.40;;;;;;;;;;6278727;22;20034;-81
2022/09/13 13:32:01;;;;;;;10.45;1.63;;;;;;;;;;6306747;22;20023;-82
2022/09/13 13:34:36;;;;;;;10.00;1.60;;;;;;;;;;6277148;22;20509;-82
2022/09/13 13:37:08;;;;;;;9.27;1.45;;;;;;;;;;6306917;22;20463;-80
2022/09/13 13:39:41;;;;;;;9.15;1.40;;;;;;;;;;6306361;22;20103;-82
2022/09/13 13:42:24;;;;;;;5.65;0.95;;;;;;;;;;6256139;22;20023;-83
2022/09/13 13:45:09;;;;;;;11.13;1.40;;;;;;;;;;6252917;22;20118;-83
2022/09/13 13:50:18;;;;;;;8.82;2.15;;;;;;;;;;6284910;22;20096;-85
2022/09/13 13:52:47;;;;;;;11.18;1.48;;;;;;;;;;6259334;22;20094;-86
2022/09/13 13:58:58;;;;;;;8.77;1.38;;;;;;;;;;6298021;22;20100;-84
2022/09/13 14:01:36;;;;;;;9.52;1.25;;;;;;;;;;6239010;23;20028;-80
2022/09/13 14:04:30;;;;;;;10.68;1.98;;;21.50;99.90;;;;;;6215998;23;20040;-84
2022/09/13 14:07:11;;;;;;;11.13;1.52;;;;;;;;;;6218442;23;20055;-84
2022/09/13 14:09:51;;;;;;;6.22;1.38;;;;;;;;;;6246157;23;20024;-83
2022/09/13 14:12:21;;;;;;;7.65;1.27;;;;;;;;;;6245718;23;20016;-84
2022/09/13 14:14:59;;;;;;;7.47;1.23;;;;;;;;;;6194290;23;20027;-83
2022/09/13 14:17:30;;;;;;;8.15;1.52;;;;;;;;;;6218171;23;20016;-82
2022/09/13 14:23:19;;;;;;;7.20;1.20;;;;;;;;;;6304272;22;20026;-84
2022/09/13 14:26:02;;;;;;;6.38;1.50;;;;;;;;;;6302663;22;20019;-83
2022/09/13 14:28:28;;;;;;;7.10;1.05;;;;;;;;;;6252044;22;20106;-82
2022/09/13 14:30:56;;;;;;;7.10;1.05;;;;;;;;;;6302945;22;20019;-82
2022/09/13 14:36:21;;;;;;;4.10;0.68;;;;;;;;;;6273507;22;20049;-83
2022/09/13 14:38:49;;;;;;;4.32;0.93;;;;;;;;;;6272196;22;20583;-85
2022/09/13 14:41:17;;;;;;;3.60;1.02;;;;;;;;;;6299431;22;20050;-82
2022/09/13 14:43:44;;;;;;;6.35;1.55;;;;;;;;;;6303842;22;20054;-83
2022/09/13 14:46:10;;;;;;;6.07;0.93;;;;;;;;;;6300805;22;20027;-81
2022/09/13 14:48:50;;;;;;;6.55;1.30;;;;;;;;;;6276652;22;20048;-82
2022/09/13 14:51:17;;;;;;;6.65;1.05;;;;;;;;;;6301577;22;20019;-81
2022/09/13 14:57:18;;;;;;;6.88;1.10;;;;;;;;;;6239867;23;20090;-87
2022/09/13 14:59:53;;;;;;;5.03;1.52;;;;;;;;;;6213984;23;20031;-82
2022/09/13 15:02:35;;;;;;;6.95;1.35;;;;;;;;;;6287462;22;20020;-84
2022/09/13 15:05:14;;;;;;;5.90;1.02;;;;;;;;;;6303488;22;20030;-82
2022/09/13 15:07:43;;;;;;;7.53;1.25;;;;;;;;;;6301890;22;20019;-83
2022/09/13 15:10:23;;;;;;;6.57;1.73;;;;;;;;;;6303171;22;20015;-83
2022/09/13 15:13:05;;;;;;;6.20;1.08;;;;;;;;;;6304209;22;20030;-82
2022/09/13 15:15:32;;;;;;;4.72;0.90;;;;;;;;;;6276835;22;20427;-82
2022/09/13 15:18:03;;;;;;;8.07;1.20;;;;;;;;;;6250066;22;20019;-82
2022/09/13 15:20:45;;;;;;;5.95;1.60;;;;;;;;;;6271204;22;20031;-82
2022/09/13 15:23:15;;;;;;;6.57;1.10;;;;;;;;;;6272228;22;20423;-82
2022/09/13 15:25:52;;;;;;;5.82;1.20;;;;;;;;;;6302054;22;20015;-83
2022/09/13 15:28:37;;;;;;;9.02;1.70;;;;;;;;;;6246578;22;20525;-83
2022/09/13 15:31:20;;;;;;;4.90;1.67;;;;;;;;;;6301015;22;20471;-82
2022/09/13 15:33:46;;;;;;;9.85;4.13;;;;;;;;;;6272751;22;20019;-82
2022/09/13 15:36:18;;;;;;;10.90;3.10;;;;;;;;;;6272281;22;20015;-84
2022/09/13 15:38:59;;;;;;;6.63;1.70;;;;;;;;;;6248842;22;20030;-83
2022/09/13 15:44:39;;;;;;;11.68;2.17;;;;;;;;;;6303959;22;20368;-82
2022/09/13 15:47:23;;;;;;;8.30;2.80;;;;;;;;;;6300676;22;20054;-88
2022/09/13 15:55:26;;;;;;;;;;;;;;;;;;6307225;22;20076;-85
2022/09/13 15:57:53;;;;;;;6.45;2.67;;;;;;;;;;6281220;22;19953;-81
2022/09/13 16:00:27;;;;;;;9.73;1.70;;;;;;;;;;6277227;22;20019;-85
2022/09/13 16:08:51;;;;;;;7.53;2.00;;;;;;;;;;6308530;22;20442;-83
2022/09/13 16:11:17;;;;;;;12.27;2.60;;;;;;;;;;6282223;22;20027;-85
2022/09/13 16:13:43;;;;;;;10.18;2.03;;;;;;;;;;6310791;22;20150;-85
2022/09/13 16:16:24;;;;;;;8.65;1.30;;;;;;;;;;6310192;22;20015;-86
2022/09/13 16:18:53;;;;;;;10.70;1.23;;;;;;;;;;6317463;22;20026;-84
2022/09/13 16:21:41;;;;;;;5.03;1.50;;;;;;;;;;6263068;22;20062;-86
2022/09/13 16:24:07;;;;;;;8.63;1.88;;;;;;;;;;6286008;22;20072;-88
2022/09/13 16:26:43;;;;;;;17.50;1.25;;;;;;;;;;6258430;22;20019;-85
2022/09/13 16:29:12;;;;;;;6.40;1.10;;;;;;;;;;6282249;22;20027;-89
2022/09/13 16:34:42;;;;;;;5.13;0.90;;;;;;;;;;6311747;22;20023;-86
2022/09/13 16:37:10;;;;;;;6.05;1.15;;;;;;;;;;6258908;22;20023;-87
2022/09/13 16:40:10;;;;;;;7.32;1.35;;;;;;;;;;6311827;22;20023;-87
2022/09/13 16:42:38;;;;;;;6.68;1.52;;;;;;;;;;6284356;22;20015;-86
2022/09/13 16:45:04;;;;;;;6.82;1.10;;;;;;;;;;6281619;22;20084;-84
2022/09/13 16:47:30;;;;;;;6.85;1.30;;;;;;;;;;6311259;22;20019;-86
2022/09/13 16:49:59;;;;;;;3.08;0.88;;;;;;;;;;6282786;22;20050;-85
2022/09/13 16:52:25;;;;;;;4.53;0.85;;;;;;;;;;6311804;22;20023;-85
2022/09/13 16:54:51;;;;;;;3.60;0.73;;;;;;;;;;6311031;22;20392;-82
2022/09/13 16:57:18;;;;;;;8.13;1.83;;;;;;;;;;6259330;22;20019;-87
2022/09/13 16:59:46;;;;;;;7.70;1.50;;;;;;;;;;6257520;22;20073;-85
2022/09/13 17:02:12;;;;;;;9.07;1.42;;;;;;;;;;6284370;22;20789;-86
2022/09/13 17:05:06;;;;;;;11.70;1.77;;;;;;;;;;6284837;22;20020;-88
2022/09/13 17:08:02;;;;;;;10.48;2.67;;;;;;;;;;6308281;22;20053;-86
2022/09/13 17:10:28;;;;;;;13.45;2.80;;;;;;;;;;6310845;22;20027;-84
2022/09/13 17:13:16;;;;;;;8.88;2.72;;;;;;;;;;6309317;22;20045;-85
2022/09/13 17:15:58;;;;;;;5.88;1.50;;;;;;;;;;6312704;22;20351;-89
2022/09/13 17:18:33;;;;;;;5.10;1.10;;;;;;;;;;6282265;22;20015;-85
2022/09/13 17:21:00;;;;;;;7.80;1.17;;;;;;;;;;6309642;22;20074;-85
2022/09/13 17:23:27;;;;;;;3.97;0.88;;;;;;;;;;6306748;22;20347;-85
2022/09/13 17:25:59;;;;;;;6.45;0.88;;;;;;;;;;6308460;22;20451;-87
2022/09/13 17:28:26;;;;;;;7.05;1.15;;;;;;;;;;6309298;22;20019;-87
2022/09/13 17:30:52;;;;;;;8.43;1.00;;;;;;;;;;6309530;22;20019;-89
2022/09/13 17:33:18;;;;;;;6.82;1.50;;;;;;;;;;6305521;22;20084;-85
2022/09/13 17:35:45;;;;;;;10.35;1.35;;;;;;;;;;6283277;22;20076;-85
2022/09/13 17:38:30;;;;;;;9.88;1.20;;;;;;;;;;6309998;22;20051;-86
2022/09/13 17:41:15;;;;;;;9.63;1.13;;;;;;;;;;6310582;22;20049;-87
2022/09/13 17:46:17;;;;;;;7.93;1.02;;;;;;;;;;6308717;22;20039;-85
2022/09/13 17:48:43;;;;;;;5.57;1.08;;;;;;;;;;6284990;22;20023;-86
2022/09/13 17:51:14;;;;;;;5.43;1.10;;;;;;;;;;6312491;22;20015;-86
2022/09/13 17:53:42;;;;;;;6.53;1.08;;;;;;;;;;6282617;22;20450;-83
2022/09/13 17:56:08;;;;;;;7.45;1.30;;;;;;;;;;6314522;22;20034;-82
2022/09/13 17:58:35;;;;;;;3.92;1.35;;;;;;;;;;6262514;22;20023;-85
2022/09/13 18:04:23;;;;;;;8.88;0.85;;;;;;;;;;6310482;22;20045;-83
2022/09/13 18:06:50;;;;;;;3.85;0.85;;;;;;;;;;6285454;22;20108;-83
2022/09/13 18:09:40;;;;;;;5.18;0.93;;;;;;;;;;6281740;22;20023;-84
2022/09/13 18:12:06;;;;;;;6.35;1.05;;;;;;;;;;6312063;22;20042;-81
2022/09/13 18:14:58;;;;;;;11.70;1.30;;;;;;;;;;6255484;22;20053;-86
2022/09/13 18:17:49;;;;;;;2.83;0.68;;;;;;;;;;6307932;22;20042;-86
2022/09/13 18:20:24;;;;;;;2.65;0.80;;;;;;;;;;6308333;22;20026;-82
2022/09/13 18:23:09;;;;;;;2.90;0.70;;;;;;;;;;6308107;22;20023;-87
2022/09/13 18:39:02;;;;;;;6.35;1.05;;;;;;;;;;6312627;22;20026;-85
2022/09/13 18:41:33;;;;;;;7.50;1.20;;;;;;;;;;6307633;22;20395;-85
2022/09/13 18:44:29;;;;;;;5.07;0.93;;;;;;;;;;6315856;22;20025;-86
2022/09/13 18:53:52;;;;;;;3.42;0.70;;;;;;;;;;6306049;22;20019;-85
2022/09/13 18:56:52;;;;;;;8.07;1.08;;;;;;;;;;6306556;22;20103;-87
2022/09/13 18:59:19;;;;;;;4.22;0.80;;;;;;;;;;6278022;22;20033;-85
2022/09/13 19:08:48;;;;;;;9.80;1.67;;;;;;;;;;6306729;22;20073;-87
2022/09/13 19:11:14;;;;;;;;;;;;;;;;;;6305880;22;20351;-82